TimeAKST,TemperatureF,Dew PointF,Humidity,Sea Level PressureIn,VisibilityMPH,Wind Direction,Wind SpeedMPH,Gust SpeedMPH,PrecipitationIn,Events,Conditions,WindDirDegrees,DateUTC
12:36 AM,35.6,32.0,87,30.15,10.0,East,5.8,-,0.00,,Overcast,100,2013-02-17 09:36:00
12:53 AM,35.1,32.0,89,30.15,10.0,East,6.9,-,0.00,,Overcast,100,2013-02-17 09:53:00
1:04 AM,35.6,32.0,87,30.14,10.0,East,6.9,-,N/A,,Overcast,90,2013-02-17 10:04:00
1:53 AM,36.0,32.0,86,30.13,10.0,ESE,9.2,-,0.00,,Overcast,120,2013-02-17 10:53:00
3:28 AM,35.6,33.8,93,30.10,6.0,ESE,11.5,-,0.00,Snow,Light Snow,110,2013-02-17 12:28:00
3:53 AM,35.1,33.1,92,30.09,8.0,East,9.2,-,0.00,Rain-Snow,Light Rain,100,2013-02-17 12:53:00
4:05 AM,35.6,33.8,93,30.07,10.0,East,9.2,-,0.00,,Overcast,100,2013-02-17 13:05:00
4:53 AM,36.0,32.0,86,30.06,10.0,ESE,10.4,-,0.00,Rain-Snow,Light Rain,120,2013-02-17 13:53:00
5:05 AM,35.6,32.0,87,30.04,10.0,ESE,9.2,-,0.00,,Overcast,110,2013-02-17 14:05:00
5:53 AM,36.0,30.9,82,30.01,7.0,East,13.8,-,0.00,,Overcast,100,2013-02-17 14:53:00
6:53 AM,36.0,30.9,82,29.97,7.0,ESE,12.7,-,N/A,,Overcast,110,2013-02-17 15:53:00
7:53 AM,37.0,30.0,76,29.94,10.0,ESE,11.5,-,N/A,,Overcast,120,2013-02-17 16:53:00
8:53 AM,37.0,30.0,76,29.92,10.0,ESE,11.5,-,N/A,,Overcast,120,2013-02-17 17:53:00
9:53 AM,37.0,30.9,79,29.90,10.0,ESE,12.7,-,N/A,,Overcast,110,2013-02-17 18:53:00
10:53 AM,37.0,32.0,82,29.88,8.0,ESE,10.4,-,0.00,Rain,Light Rain,120,2013-02-17 19:53:00
11:53 AM,37.0,32.0,82,29.84,9.0,SE,12.7,-,0.00,,Overcast,130,2013-02-17 20:53:00
12:53 PM,37.9,32.0,79,29.81,10.0,ESE,13.8,-,N/A,,Overcast,120,2013-02-17 21:53:00
1:53 PM,39.9,30.9,70,29.77,10.0,ESE,13.8,-,N/A,,Overcast,120,2013-02-17 22:53:00
2:53 PM,39.9,30.0,68,29.73,10.0,ESE,15.0,-,N/A,,Overcast,120,2013-02-17 23:53:00
3:53 PM,39.9,30.0,68,29.69,10.0,ESE,19.6,26.5,N/A,,Overcast,120,2013-02-18 00:53:00
4:53 PM,39.9,30.9,70,29.67,10.0,ESE,25.3,29.9,0.00,Rain,Light Rain,120,2013-02-18 01:53:00
5:53 PM,39.9,32.0,73,29.65,10.0,ESE,21.9,29.9,0.00,,Overcast,120,2013-02-18 02:53:00
6:53 PM,39.0,33.1,79,29.64,10.0,ESE,20.7,33.4,0.00,Rain,Light Rain,120,2013-02-18 03:53:00
8:53 PM,39.0,34.0,82,29.64,7.0,ESE,16.1,25.3,0.05,Rain,Light Rain,120,2013-02-18 05:53:00
9:53 PM,39.0,35.1,86,29.65,9.0,SE,11.5,-,0.11,Rain,Light Rain,130,2013-02-18 06:53:00
10:53 PM,39.0,35.1,86,29.65,7.0,ESE,13.8,19.6,0.04,Rain,Light Rain,120,2013-02-18 07:53:00
11:53 PM,37.9,36.0,93,29.66,7.0,ESE,9.2,-,0.05,Rain,Light Rain,120,2013-02-18 08:53:00